Time;durP1;ratioP1;P1;durP2;ratioP2;P2;SDS_P1;SDS_P2;PMS_P1;PMS_P2;Temp;Humidity;BMP_temperature;BMP_pressure;BME280_temperature;BME280_humidity;BME280_pressure;Samples;Min_cycle;Max_cycle;Signal;HPM_P1;HPM_P2
2022/01/02 00:00:29;;;;;;;10.65;6.28;;;12.20;99.90;;;;;;4987475;28;20038;-89
2022/01/02 00:03:03;;;;;;;10.40;6.05;;;12.20;99.90;;;;;;4991984;28;20037;-88
2022/01/02 00:05:32;;;;;;;11.38;6.78;;;12.20;99.90;;;;;;4992442;28;20049;-89
2022/01/02 00:08:08;;;;;;;11.57;6.43;;;12.10;99.90;;;;;;4995091;28;20400;-89
2022/01/02 00:10:51;;;;;;;10.68;6.63;;;12.10;99.90;;;;;;4985068;28;20050;-88
2022/01/02 00:13:24;;;;;;;10.32;6.10;;;12.10;99.90;;;;;;4992876;28;20507;-88
2022/01/02 00:15:51;;;;;;;12.60;6.60;;;12.10;99.90;;;;;;4985772;28;20053;-88
2022/01/02 00:18:19;;;;;;;11.48;6.70;;;12.10;99.90;;;;;;4992377;28;20037;-88
2022/01/02 00:20:48;;;;;;;11.90;6.88;;;12.10;99.90;;;;;;5001394;28;20081;-88
2022/01/02 00:23:21;;;;;;;10.18;6.05;;;12.10;99.90;;;;;;5006401;28;20083;-88
2022/01/02 00:25:48;;;;;;;;;;;12.10;99.90;;;;;;4993982;28;20034;-89
2022/01/02 00:28:16;;;;;;;13.15;6.45;;;12.00;99.90;;;;;;4992413;28;19924;-88
2022/01/02 00:30:44;;;;;;;11.32;6.15;;;12.00;99.90;;;;;;5012556;28;20023;-88
2022/01/02 00:33:10;;;;;;;13.57;7.10;;;11.90;99.90;;;;;;5010743;28;20121;-88
2022/01/02 00:35:37;;;;;;;13.90;6.65;;;12.00;99.90;;;;;;4993944;28;20042;-88
2022/01/02 00:38:05;;;;;;;12.32;6.57;;;11.90;99.90;;;;;;5003057;28;20464;-89
2022/01/02 00:40:34;;;;;;;13.30;7.22;;;11.90;99.90;;;;;;5002909;28;20076;-88
2022/01/02 00:43:04;;;;;;;12.68;6.90;;;11.90;99.90;;;;;;4984698;28;20523;-88
2022/01/02 00:45:36;;;;;;;15.50;7.47;;;11.90;99.90;;;;;;5011726;28;20038;-88
2022/01/02 00:48:13;;;;;;;12.63;6.40;;;11.90;99.90;;;;;;4991255;28;20042;-88
2022/01/02 00:50:42;;;;;;;12.50;6.65;;;11.90;99.90;;;;;;4989449;28;20038;-89
2022/01/02 00:53:11;;;;;;;12.00;6.38;;;11.90;99.90;;;;;;5014261;28;20026;-88
2022/01/02 00:55:36;;;;;;;12.45;6.60;;;11.90;99.90;;;;;;5007917;28;20045;-89
2022/01/02 00:58:16;;;;;;;12.73;6.28;;;11.90;99.90;;;;;;5011063;28;20046;-88
2022/01/02 01:00:51;;;;;;;12.27;6.53;;;11.90;99.90;;;;;;5006432;28;20407;-88
2022/01/02 01:03:25;;;;;;;12.00;6.85;;;11.90;99.90;;;;;;5002001;28;21146;-88
2022/01/02 01:05:54;;;;;;;12.30;6.68;;;11.90;99.90;;;;;;4990692;28;20042;-88
2022/01/02 01:08:22;;;;;;;12.98;6.65;;;11.90;99.90;;;;;;4988272;28;20037;-88
2022/01/02 01:10:49;;;;;;;12.10;6.70;;;11.90;99.90;;;;;;4994817;28;20069;-88
2022/01/02 01:13:15;;;;;;;11.43;6.78;;;11.90;99.90;;;;;;4976960;28;20128;-88
2022/01/02 01:15:42;;;;;;;11.07;6.38;;;11.90;99.90;;;;;;5001944;28;20396;-88
2022/01/02 01:18:08;;;;;;;12.85;6.97;;;11.80;99.90;;;;;;5007822;28;20125;-88
2022/01/02 01:20:38;;;;;;;12.13;6.57;;;11.90;99.90;;;;;;5003403;28;20073;-88
2022/01/02 01:23:04;;;;;;;13.32;7.10;;;11.80;99.90;;;;;;4986666;28;20081;-88
2022/01/02 01:25:30;;;;;;;11.43;6.25;;;11.80;99.90;;;;;;5001942;28;20066;-88
2022/01/02 01:27:56;;;;;;;10.98;6.32;;;11.90;99.90;;;;;;5002737;28;20467;-88
2022/01/02 01:30:25;;;;;;;12.70;5.80;;;11.90;99.90;;;;;;4985683;28;20514;-88
2022/01/02 01:32:52;;;;;;;12.18;6.30;;;11.90;99.90;;;;;;4999327;28;20066;-88
2022/01/02 01:35:18;;;;;;;13.07;6.78;;;11.90;99.90;;;;;;5007368;28;20046;-89
2022/01/02 01:37:44;;;;;;;11.93;6.03;;;11.90;99.90;;;;;;4999166;28;20038;-88
2022/01/02 01:40:11;;;;;;;12.95;6.97;;;11.90;99.90;;;;;;4989288;28;20238;-88
2022/01/02 01:42:42;;;;;;;16.20;7.60;;;11.90;99.90;;;;;;4984698;28;20042;-89
2022/01/02 01:47:49;;;;;;;13.13;6.35;;;11.90;99.90;;;;;;4998834;28;20046;-89
2022/01/02 01:50:15;;;;;;;13.98;6.68;;;11.80;99.90;;;;;;5004230;28;20033;-89
2022/01/02 01:52:42;;;;;;;15.23;6.72;;;11.80;99.90;;;;;;4982005;28;20074;-89
2022/01/02 01:55:08;;;;;;;11.75;6.18;;;11.80;99.90;;;;;;4982757;28;20150;-89
2022/01/02 01:57:34;;;;;;;16.33;7.75;;;11.80;99.90;;;;;;5006029;28;20053;-89
2022/01/02 02:00:06;;;;;;;13.02;6.70;;;11.80;99.90;;;;;;4975691;28;20125;-89
2022/01/02 02:02:33;;;;;;;14.85;6.90;;;11.80;99.90;;;;;;4991306;28;20088;-89
2022/01/02 02:04:58;;;;;;;12.00;6.88;;;11.80;99.90;;;;;;4982220;28;20053;-88
2022/01/02 02:07:28;;;;;;;14.13;7.05;;;11.80;99.90;;;;;;5003643;28;20038;-89
2022/01/02 02:12:20;;;;;;;14.57;7.47;;;11.80;99.90;;;;;;5002841;28;20404;-89
2022/01/02 02:14:46;;;;;;;13.60;7.35;;;11.80;99.90;;;;;;4995201;28;20074;-89
2022/01/02 02:17:12;;;;;;;14.07;7.47;;;11.80;99.90;;;;;;4982356;28;20121;-89
2022/01/02 02:19:38;;;;;;;15.07;7.38;;;11.80;99.90;;;;;;4998503;28;20117;-89
2022/01/02 02:22:04;;;;;;;13.02;7.10;;;11.80;99.90;;;;;;4980431;28;20038;-88
2022/01/02 02:24:29;;;;;;;13.23;7.05;;;11.80;99.90;;;;;;4974045;28;20587;-89
2022/01/02 02:26:56;;;;;;;15.40;6.75;;;11.80;99.90;;;;;;4989998;28;20153;-89
2022/01/02 02:29:21;;;;;;;14.57;7.80;;;11.80;99.90;;;;;;5017181;28;20116;-89
2022/01/02 02:31:47;;;;;;;15.68;7.50;;;11.80;99.90;;;;;;5009777;28;20077;-89
2022/01/02 02:34:13;;;;;;;13.73;7.43;;;11.80;99.90;;;;;;4999435;28;20047;-89
2022/01/02 02:36:38;;;;;;;13.55;7.50;;;11.80;99.90;;;;;;5003539;28;20056;-88
2022/01/02 02:39:04;;;;;;;15.05;7.35;;;11.80;99.90;;;;;;5001398;28;20550;-89
2022/01/02 02:41:34;;;;;;;15.75;7.63;;;11.80;99.90;;;;;;5005757;28;20038;-89
2022/01/02 02:44:16;;;;;;;17.17;7.97;;;11.80;99.90;;;;;;5006036;28;20056;-89
2022/01/02 02:49:26;;;;;;;15.50;7.18;;;11.70;99.90;;;;;;5006133;28;20042;-89
2022/01/02 02:52:23;;;;;;;14.43;7.65;;;11.70;99.90;;;;;;5004006;28;20514;-89
2022/01/02 02:54:42;;;;;;;12.02;6.78;;;11.70;99.90;;;;;;4989149;28;20105;-89
2022/01/02 02:57:12;;;;;;;14.38;7.10;;;11.70;99.90;;;;;;4974381;28;20042;-89
2022/01/02 02:59:38;;;;;;;11.52;6.47;;;11.70;99.90;;;;;;4998745;28;20122;-89
2022/01/02 03:02:04;;;;;;;15.02;7.15;;;11.70;99.90;;;;;;4978135;28;20694;-89
2022/01/02 03:04:30;;;;;;;13.35;6.82;;;11.70;99.90;;;;;;5012030;28;20038;-89
2022/01/02 03:06:56;;;;;;;13.27;7.00;;;11.70;99.90;;;;;;4989282;28;20089;-89
2022/01/02 03:09:37;;;;;;;13.73;6.75;;;11.70;99.90;;;;;;4988771;28;20095;-89
2022/01/02 03:12:07;;;;;;;14.50;6.95;;;11.70;99.90;;;;;;4984325;28;20411;-89
2022/01/02 03:14:32;;;;;;;13.63;7.13;;;11.70;99.90;;;;;;5015122;28;20678;-89
2022/01/02 03:16:58;;;;;;;13.70;7.13;;;11.70;99.90;;;;;;5000900;28;20046;-89
2022/01/02 03:19:24;;;;;;;16.88;7.55;;;11.70;99.90;;;;;;4978067;28;20046;-89
2022/01/02 03:21:50;;;;;;;15.07;7.70;;;11.70;99.90;;;;;;5009685;28;20039;-89
2022/01/02 03:24:16;;;;;;;13.20;7.18;;;11.60;99.90;;;;;;5008257;28;20036;-89
2022/01/02 03:26:41;;;;;;;12.38;6.90;;;11.70;99.90;;;;;;5002712;28;20474;-88
2022/01/02 03:29:07;;;;;;;15.85;7.22;;;11.60;99.90;;;;;;5006718;28;20411;-89
2022/01/02 03:31:32;;;;;;;14.05;6.80;;;11.60;99.90;;;;;;4987952;28;20065;-89
2022/01/02 03:33:58;;;;;;;14.55;7.00;;;11.70;99.90;;;;;;5005615;28;20121;-89
2022/01/02 03:36:24;;;;;;;16.13;7.25;;;11.70;99.90;;;;;;5005088;28;20084;-89
2022/01/02 03:38:49;;;;;;;17.38;7.03;;;11.70;99.90;;;;;;4994551;28;20042;-89
2022/01/02 03:41:15;;;;;;;17.30;7.45;;;11.60;99.90;;;;;;4996076;28;20093;-89
2022/01/02 03:43:40;;;;;;;15.30;7.07;;;11.70;99.90;;;;;;5006968;28;20412;-89
2022/01/02 03:46:06;;;;;;;17.40;7.78;;;11.70;99.90;;;;;;5005638;28;20064;-89
2022/01/02 03:48:33;;;;;;;13.15;6.60;;;11.70;99.90;;;;;;4995917;28;20068;-90
2022/01/02 03:50:59;;;;;;;15.85;7.10;;;11.70;99.90;;;;;;5001802;28;20045;-89
2022/01/02 03:53:25;;;;;;;16.23;7.05;;;11.70;99.90;;;;;;4984678;28;20034;-89
2022/01/02 03:55:51;;;;;;;14.93;6.93;;;11.70;99.90;;;;;;4992906;28;20124;-90
2022/01/02 03:58:17;;;;;;;16.08;7.00;;;11.70;99.90;;;;;;4989579;28;20122;-90
2022/01/02 04:00:43;;;;;;;12.73;6.38;;;11.70;99.90;;;;;;5015873;28;20077;-89
2022/01/02 04:03:09;;;;;;;13.38;7.07;;;11.70;99.90;;;;;;4987318;28;20053;-89
2022/01/02 04:05:34;;;;;;;13.57;7.05;;;11.70;99.90;;;;;;5012616;28;20042;-89
2022/01/02 04:08:00;;;;;;;14.35;7.15;;;11.70;99.90;;;;;;4987583;28;20385;-90
2022/01/02 04:10:26;;;;;;;13.90;6.60;;;11.60;99.90;;;;;;4983032;28;20117;-90
2022/01/02 04:12:51;;;;;;;15.65;7.55;;;11.60;99.90;;;;;;5010384;28;20065;-89
2022/01/02 04:15:17;;;;;;;15.18;7.13;;;11.60;99.90;;;;;;5000482;28;20038;-89
2022/01/02 04:17:43;;;;;;;14.63;7.15;;;11.60;99.90;;;;;;4984385;28;20042;-89
2022/01/02 04:20:11;;;;;;;13.85;6.95;;;11.60;99.90;;;;;;4978101;28;20173;-89
2022/01/02 04:22:37;;;;;;;15.20;7.20;;;11.60;99.90;;;;;;4989547;28;20049;-89
2022/01/02 04:25:05;;;;;;;16.17;7.53;;;11.60;99.90;;;;;;4991223;28;20046;-89
2022/01/02 04:27:30;;;;;;;16.95;7.28;;;11.60;99.90;;;;;;4987771;28;20037;-89
2022/01/02 04:29:56;;;;;;;13.63;7.30;;;11.60;99.90;;;;;;4987332;28;20038;-89
2022/01/02 04:32:22;;;;;;;13.55;6.55;;;11.70;99.90;;;;;;5012062;28;20034;-89
2022/01/02 04:34:47;;;;;;;16.48;6.97;;;11.70;99.90;;;;;;4997540;28;20125;-89
2022/01/02 04:37:13;;;;;;;13.00;6.40;;;11.70;99.90;;;;;;4992505;28;20595;-89
2022/01/02 04:39:40;;;;;;;14.15;5.95;;;11.70;99.90;;;;;;5000616;28;20415;-89
2022/01/02 04:42:06;;;;;;;16.35;6.85;;;11.70;99.90;;;;;;5008184;28;20510;-89
2022/01/02 04:44:32;;;;;;;17.20;6.78;;;11.70;99.90;;;;;;4976463;28;20041;-90
2022/01/02 04:46:57;;;;;;;15.80;6.40;;;11.80;99.90;;;;;;4990376;28;20045;-89
2022/01/02 04:49:23;;;;;;;15.55;6.32;;;11.80;99.90;;;;;;5025612;28;20053;-89
2022/01/02 04:51:49;;;;;;;15.57;6.53;;;11.80;99.90;;;;;;4989580;28;20038;-89
2022/01/02 04:54:14;;;;;;;16.00;5.97;;;11.80;99.90;;;;;;4978909;28;20034;-89
2022/01/02 04:56:40;;;;;;;14.95;6.07;;;11.80;99.90;;;;;;5011198;28;20057;-89
2022/01/02 04:59:06;;;;;;;13.93;5.72;;;11.80;99.90;;;;;;4999632;28;20407;-89
2022/01/02 05:01:32;;;;;;;14.05;5.97;;;11.90;99.90;;;;;;4992153;28;20531;-89
2022/01/02 05:03:57;;;;;;;15.63;5.78;;;11.90;99.90;;;;;;5004684;28;20041;-90
2022/01/02 05:06:23;;;;;;;15.20;6.13;;;11.90;99.90;;;;;;4985987;28;20038;-90
2022/01/02 05:08:48;;;;;;;14.15;6.13;;;12.00;99.90;;;;;;4980393;28;20084;-90
2022/01/02 05:11:14;;;;;;;16.63;6.03;;;12.00;99.90;;;;;;5014905;28;20030;-89
2022/01/02 05:13:40;;;;;;;12.65;5.57;;;11.90;99.90;;;;;;5007566;28;20034;-90
2022/01/02 05:16:06;;;;;;;14.93;6.03;;;11.90;99.90;;;;;;5006278;28;20034;-90
2022/01/02 05:18:32;;;;;;;14.50;6.10;;;12.00;99.90;;;;;;5010983;28;20182;-90
2022/01/02 05:20:57;;;;;;;18.55;6.28;;;12.00;99.90;;;;;;4983495;28;20111;-89
2022/01/02 05:23:23;;;;;;;14.85;6.03;;;12.00;99.90;;;;;;4983412;28;20143;-90
2022/01/02 05:25:48;;;;;;;14.13;5.68;;;12.00;99.90;;;;;;5011276;28;20039;-89
2022/01/02 05:28:14;;;;;;;14.68;4.80;;;12.10;99.90;;;;;;4980234;28;20034;-90
2022/01/02 05:30:41;;;;;;;17.33;5.55;;;12.10;99.90;;;;;;5010227;28;20072;-89
2022/01/02 05:33:07;;;;;;;16.58;5.32;;;12.20;99.90;;;;;;5002442;28;20038;-89
2022/01/02 05:35:33;;;;;;;13.40;5.20;;;12.20;99.90;;;;;;5016351;28;20038;-90
2022/01/02 05:38:01;;;;;;;12.93;5.07;;;12.30;99.90;;;;;;5013091;28;20033;-90
2022/01/02 05:40:34;;;;;;;13.40;5.18;;;12.30;99.90;;;;;;4996209;28;20046;-89
2022/01/02 05:43:01;;;;;;;13.48;4.65;;;12.40;99.90;;;;;;5008914;28;20563;-89
2022/01/02 05:45:28;;;;;;;11.82;4.10;;;12.50;99.90;;;;;;5000218;28;20046;-90
2022/01/02 05:47:54;;;;;;;11.35;4.10;;;12.50;99.90;;;;;;4993262;28;20038;-90
2022/01/02 05:50:20;;;;;;;17.45;4.82;;;12.60;99.90;;;;;;5016629;28;20095;-90
2022/01/02 05:52:45;;;;;;;16.45;4.93;;;12.60;99.90;;;;;;4994307;28;20518;-89
2022/01/02 05:55:11;;;;;;;13.65;4.00;;;12.70;99.90;;;;;;4993856;28;20041;-89
2022/01/02 05:57:37;;;;;;;12.60;4.30;;;12.80;99.90;;;;;;5011855;28;20042;-89
2022/01/02 06:00:07;;;;;;;11.65;3.50;;;12.80;99.90;;;;;;4981065;28;20041;-90
2022/01/02 06:02:33;;;;;;;12.40;3.92;;;12.80;99.90;;;;;;4986014;28;20085;-90
2022/01/02 06:04:59;;;;;;;14.85;4.05;;;12.80;99.90;;;;;;4983084;28;20042;-89
2022/01/02 06:07:24;;;;;;;13.38;4.03;;;12.90;99.90;;;;;;5004336;28;20125;-90
2022/01/02 06:09:50;;;;;;;13.57;3.67;;;12.90;99.90;;;;;;5013041;28;20192;-89
2022/01/02 06:12:16;;;;;;;12.88;3.90;;;12.90;99.90;;;;;;5002626;28;20038;-89
2022/01/02 06:14:42;;;;;;;11.13;3.95;;;12.90;99.90;;;;;;5026549;28;20095;-89
2022/01/02 06:17:07;;;;;;;11.80;3.88;;;12.80;99.90;;;;;;4983195;28;20042;-89
2022/01/02 06:19:33;;;;;;;11.00;4.65;;;12.80;99.90;;;;;;5004038;28;20407;-89
2022/01/02 06:22:00;;;;;;;12.15;3.90;;;12.90;99.90;;;;;;4991260;28;20080;-88
2022/01/02 06:24:26;;;;;;;13.70;4.00;;;12.80;99.90;;;;;;4974371;28;20117;-88
2022/01/02 06:26:51;;;;;;;14.07;4.22;;;12.80;99.90;;;;;;4994163;28;20616;-90
2022/01/02 06:29:17;;;;;;;12.63;4.35;;;12.80;99.90;;;;;;4999496;28;20073;-89
2022/01/02 06:31:42;;;;;;;14.32;4.50;;;12.80;99.90;;;;;;5002012;28;20037;-89
2022/01/02 06:34:08;;;;;;;14.93;4.28;;;12.80;99.90;;;;;;4983339;28;20085;-90
2022/01/02 06:36:34;;;;;;;13.05;4.35;;;12.80;99.90;;;;;;4982735;28;20050;-90
2022/01/02 06:38:59;;;;;;;11.77;4.22;;;12.80;99.90;;;;;;4987238;28;20061;-90
2022/01/02 06:41:25;;;;;;;15.80;4.18;;;12.80;99.90;;;;;;4982144;28;20031;-89
2022/01/02 06:43:52;;;;;;;16.80;4.72;;;12.80;99.90;;;;;;4985731;28;20535;-90
2022/01/02 06:46:21;;;;;;;11.23;4.45;;;12.80;99.90;;;;;;5000028;28;20081;-89
2022/01/02 06:48:47;;;;;;;12.40;4.13;;;12.80;99.90;;;;;;5001612;28;20046;-89
2022/01/02 06:51:12;;;;;;;14.93;4.18;;;12.80;99.90;;;;;;4992499;28;20440;-89
2022/01/02 06:53:38;;;;;;;13.02;4.50;;;12.70;99.90;;;;;;4998978;28;20488;-89
2022/01/02 06:56:04;;;;;;;14.00;4.47;;;12.70;99.90;;;;;;4981653;28;20046;-89
2022/01/02 06:58:30;;;;;;;12.70;4.32;;;12.70;99.90;;;;;;4974615;28;20456;-89
2022/01/02 07:00:57;;;;;;;10.52;3.83;;;12.80;99.90;;;;;;4992778;28;20038;-89
2022/01/02 07:03:24;;;;;;;12.75;5.10;;;12.70;99.90;;;;;;5006671;28;20132;-89
2022/01/02 07:05:50;;;;;;;17.17;4.80;;;12.70;99.90;;;;;;4992271;28;20048;-90
2022/01/02 07:08:16;;;;;;;14.82;5.38;;;12.70;99.90;;;;;;4989959;28;20038;-89
2022/01/02 07:10:42;;;;;;;14.65;4.90;;;12.70;99.90;;;;;;5009327;28;20049;-89
2022/01/02 07:13:08;;;;;;;12.68;5.10;;;12.70;99.90;;;;;;5008901;28;20041;-89
2022/01/02 07:15:34;;;;;;;13.05;4.82;;;12.70;99.90;;;;;;4975954;28;20067;-89
2022/01/02 07:18:00;;;;;;;11.70;4.65;;;12.60;99.90;;;;;;4998020;28;20555;-90
2022/01/02 07:20:26;;;;;;;14.35;5.25;;;12.60;99.90;;;;;;4986774;28;20045;-89
2022/01/02 07:22:52;;;;;;;11.40;4.68;;;12.60;99.90;;;;;;4969887;28;20030;-88
2022/01/02 07:25:18;;;;;;;12.77;4.85;;;12.50;99.90;;;;;;4997680;28;20176;-89
2022/01/02 07:27:43;;;;;;;12.38;5.28;;;12.50;99.90;;;;;;5004310;28;20046;-90
2022/01/02 07:30:10;;;;;;;12.68;4.75;;;12.50;99.90;;;;;;4981272;28;20033;-90
2022/01/02 07:32:37;;;;;;;11.98;4.80;;;12.40;99.90;;;;;;4980380;28;20148;-89
2022/01/02 07:35:06;;;;;;;11.63;5.10;;;12.40;99.90;;;;;;4998555;28;20044;-89
2022/01/02 07:37:34;;;;;;;17.27;5.40;;;12.40;99.90;;;;;;4981281;28;20068;-90
2022/01/02 07:40:00;;;;;;;14.85;5.32;;;12.40;99.90;;;;;;4998863;28;20049;-90
2022/01/02 07:42:26;;;;;;;11.63;5.00;;;12.40;99.90;;;;;;4989056;28;20060;-89
2022/01/02 07:44:52;;;;;;;10.48;4.43;;;12.40;99.90;;;;;;4989766;28;20034;-89
2022/01/02 07:47:17;;;;;;;12.48;4.50;;;12.40;99.90;;;;;;4982791;28;20499;-89
2022/01/02 07:49:43;;;;;;;12.88;5.30;;;12.40;99.90;;;;;;5005675;28;20042;-90
2022/01/02 07:52:08;;;;;;;14.82;5.10;;;12.40;99.90;;;;;;4973598;28;20442;-89
2022/01/02 07:54:34;;;;;;;14.45;4.78;;;12.40;99.90;;;;;;4973590;28;20105;-89
2022/01/02 07:57:00;;;;;;;11.35;4.65;;;12.40;99.90;;;;;;4977246;28;20042;-89
2022/01/02 07:59:26;;;;;;;12.73;4.35;;;12.40;99.90;;;;;;5001073;28;20052;-89
2022/01/02 08:01:51;;;;;;;13.05;5.32;;;12.40;99.90;;;;;;4984257;28;20064;-90
2022/01/02 08:04:18;;;;;;;11.48;4.50;;;12.40;99.90;;;;;;5002527;28;20085;-90
2022/01/02 08:06:45;;;;;;;13.70;4.68;;;12.40;99.90;;;;;;4989790;28;20042;-90
2022/01/02 08:09:10;;;;;;;12.75;4.50;;;12.40;99.90;;;;;;4985677;28;20040;-89
2022/01/02 08:11:36;;;;;;;9.35;4.20;;;12.50;99.90;;;;;;4985379;28;20042;-90
2022/01/02 08:14:01;;;;;;;12.18;4.80;;;12.50;99.90;;;;;;4988630;28;20129;-90
2022/01/02 08:16:27;;;;;;;11.77;4.03;;;12.50;99.90;;;;;;5002988;28;20092;-90
2022/01/02 08:18:52;;;;;;;12.00;4.55;;;12.40;99.90;;;;;;5024253;28;20076;-90
2022/01/02 08:21:18;;;;;;;13.10;4.68;;;12.40;99.90;;;;;;5001798;28;20073;-89
2022/01/02 08:23:44;;;;;;;12.77;4.38;;;12.40;99.90;;;;;;5000946;28;20042;-90
2022/01/02 08:26:09;;;;;;;10.43;4.28;;;12.40;99.90;;;;;;4983834;28;20057;-90
2022/01/02 08:28:35;;;;;;;11.55;4.35;;;12.40;99.90;;;;;;4979030;28;20057;-89
2022/01/02 08:31:01;;;;;;;12.07;4.50;;;12.40;99.90;;;;;;4990584;28;20733;-90
2022/01/02 08:33:26;;;;;;;10.50;4.47;;;12.30;99.90;;;;;;4984413;28;20656;-89
2022/01/02 08:35:52;;;;;;;12.80;4.68;;;12.30;99.90;;;;;;5020094;28;20042;-90
2022/01/02 08:38:18;;;;;;;11.90;5.35;;;12.30;99.90;;;;;;4997650;28;20128;-91
2022/01/02 08:40:43;;;;;;;10.38;4.45;;;12.30;99.90;;;;;;4981437;28;20561;-90
2022/01/02 08:43:09;;;;;;;11.45;4.53;;;12.30;99.90;;;;;;5011421;28;20597;-90
2022/01/02 08:45:36;;;;;;;14.27;4.43;;;12.20;99.90;;;;;;5009770;28;20113;-90
2022/01/02 08:48:03;;;;;;;12.57;4.38;;;12.20;99.90;;;;;;4987216;28;20030;-89
2022/01/02 08:50:29;;;;;;;12.75;4.57;;;12.20;99.90;;;;;;5000565;28;20038;-90
2022/01/02 08:52:54;;;;;;;14.05;4.75;;;12.20;99.90;;;;;;5006862;28;20038;-90
2022/01/02 08:55:20;;;;;;;11.43;3.80;;;12.30;99.90;;;;;;5007416;28;20470;-91
2022/01/02 08:57:46;;;;;;;12.10;4.18;;;12.40;99.90;;;;;;4984918;28;20077;-90
2022/01/02 09:00:12;;;;;;;10.52;3.72;;;12.40;99.90;;;;;;5011221;28;20045;-90
2022/01/02 09:02:38;;;;;;;12.38;3.85;;;12.40;99.90;;;;;;4980725;28;20125;-89
2022/01/02 09:05:04;;;;;;;9.10;3.97;;;12.40;99.90;;;;;;4980785;28;20133;-89
2022/01/02 09:07:32;;;;;;;10.32;3.90;;;12.40;99.90;;;;;;4980828;28;20117;-89
2022/01/02 09:09:58;;;;;;;11.27;4.20;;;12.50;99.90;;;;;;5004972;28;20117;-88
2022/01/02 09:12:24;;;;;;;12.20;3.83;;;12.40;99.90;;;;;;5006663;28;20164;-89
2022/01/02 09:14:49;;;;;;;13.50;4.45;;;12.40;99.90;;;;;;4981212;28;20034;-89
2022/01/02 09:17:15;;;;;;;10.85;4.32;;;12.30;99.90;;;;;;4989003;28;20135;-89
2022/01/02 09:19:41;;;;;;;11.73;4.47;;;12.30;99.90;;;;;;4989463;28;20042;-90
2022/01/02 09:22:06;;;;;;;13.60;4.72;;;12.30;99.90;;;;;;4988170;28;20033;-89
2022/01/02 09:24:32;;;;;;;11.50;4.35;;;12.30;99.90;;;;;;4988504;28;20129;-90
2022/01/02 09:27:01;;;;;;;13.10;4.53;;;12.30;99.90;;;;;;4977887;28;20046;-90
2022/01/02 09:29:26;;;;;;;12.77;4.38;;;12.20;99.90;;;;;;4985027;28;20399;-90
2022/01/02 09:31:52;;;;;;;10.52;4.40;;;12.20;99.90;;;;;;4991590;28;20041;-90
2022/01/02 09:34:18;;;;;;;9.73;4.20;;;12.20;99.90;;;;;;4991254;28;20061;-90
2022/01/02 09:36:43;;;;;;;11.85;4.38;;;12.20;99.90;;;;;;4990903;28;20411;-89
2022/01/02 09:39:09;;;;;;;10.52;4.45;;;12.20;99.90;;;;;;4988898;28;20124;-89
2022/01/02 09:41:38;;;;;;;10.20;4.10;;;12.20;99.90;;;;;;5005608;28;20068;-90
2022/01/02 09:44:03;;;;;;;11.50;4.00;;;12.20;99.90;;;;;;5010392;28;20085;-90
2022/01/02 09:46:32;;;;;;;12.88;4.20;;;12.20;99.90;;;;;;4984355;28;20095;-89
2022/01/02 09:48:58;;;;;;;13.52;4.30;;;12.20;99.90;;;;;;5006960;28;20040;-89
2022/01/02 09:51:28;;;;;;;11.52;4.78;;;12.20;99.90;;;;;;4982774;28;20117;-89
2022/01/02 09:53:55;;;;;;;13.15;4.60;;;12.20;99.90;;;;;;5005189;28;20041;-89
2022/01/02 09:56:22;;;;;;;12.45;4.10;;;12.20;99.90;;;;;;5008575;28;20126;-89
2022/01/02 09:58:47;;;;;;;14.90;4.38;;;12.20;99.90;;;;;;5004145;28;20104;-90
2022/01/02 10:01:19;;;;;;;12.07;3.78;;;12.20;99.90;;;;;;4986045;28;20042;-89
2022/01/02 10:03:46;;;;;;;10.52;4.25;;;12.20;99.90;;;;;;4988052;28;20108;-90
2022/01/02 10:06:13;;;;;;;10.20;4.03;;;12.30;99.90;;;;;;4989971;28;20088;-89
2022/01/02 10:08:38;;;;;;;12.13;4.18;;;12.30;99.90;;;;;;4993457;28;20502;-90
2022/01/02 10:11:33;;;;;;;13.63;4.50;;;12.30;99.90;;;;;;4982670;28;20038;-89
2022/01/02 10:14:05;;;;;;;9.93;4.00;;;12.20;99.90;;;;;;4996057;28;20030;-89
2022/01/02 10:16:42;;;;;;;9.55;4.30;;;12.30;99.90;;;;;;5008224;28;20037;-90
2022/01/02 10:19:18;;;;;;;12.50;4.40;;;12.40;99.90;;;;;;4988731;28;20037;-90
2022/01/02 10:22:01;;;;;;;10.77;4.20;;;12.40;99.90;;;;;;4999765;28;20117;-91
2022/01/02 10:24:28;;;;;;;;;;;12.40;99.90;;;;;;4990706;28;20080;-90
2022/01/02 10:27:19;;;;;;;9.48;3.92;;;12.40;99.90;;;;;;5001575;28;20040;-91
2022/01/02 10:29:46;;;;;;;12.35;4.35;;;12.40;99.90;;;;;;4999367;28;20065;-90
2022/01/02 10:32:32;;;;;;;10.77;4.47;;;12.40;99.90;;;;;;5009203;28;20050;-90
2022/01/02 10:35:23;;;;;;;11.77;4.35;;;12.40;99.90;;;;;;5009518;28;20707;-90
2022/01/02 10:37:51;;;;;;;10.52;4.38;;;12.50;99.90;;;;;;4997505;28;20030;-91
2022/01/02 10:40:27;;;;;;;11.60;4.38;;;12.50;99.90;;;;;;4985468;28;20438;-90
2022/01/02 10:42:53;;;;;;;14.18;4.50;;;12.50;99.90;;;;;;4985313;28;20507;-90
2022/01/02 10:45:53;;;;;;;10.30;4.30;;;12.50;99.90;;;;;;5013754;28;20037;-90
2022/01/02 10:48:40;;;;;;;11.30;4.75;;;12.50;99.90;;;;;;5001944;28;20522;-89
2022/01/02 10:51:15;;;;;;;10.95;4.47;;;12.50;99.90;;;;;;4992315;28;20038;-90
2022/01/02 10:53:58;;;;;;;10.25;4.70;;;12.50;99.90;;;;;;4983749;28;20063;-90
2022/01/02 10:56:26;;;;;;;11.88;4.55;;;12.50;99.90;;;;;;5011092;28;20053;-90
2022/01/02 10:58:51;;;;;;;10.50;4.90;;;12.50;99.90;;;;;;4998449;28;20100;-90
2022/01/02 11:01:17;;;;;;;12.10;5.25;;;12.50;99.90;;;;;;4981895;28;20484;-90
2022/01/02 11:03:47;;;;;;;10.20;4.65;;;12.60;99.90;;;;;;5007253;28;20413;-91
2022/01/02 11:06:24;;;;;;;10.30;5.05;;;12.70;99.90;;;;;;4981124;28;20045;-91
2022/01/02 11:08:51;;;;;;;11.35;4.93;;;12.70;99.90;;;;;;5024610;28;20060;-90
2022/01/02 11:11:18;;;;;;;10.48;4.88;;;12.70;99.90;;;;;;5004447;28;20034;-90
2022/01/02 11:13:44;;;;;;;10.02;4.35;;;12.70;99.90;;;;;;5015890;28;20048;-90
2022/01/02 11:16:10;;;;;;;8.88;4.40;;;12.60;99.90;;;;;;5011711;28;20113;-90
2022/01/02 11:18:47;;;;;;;13.13;5.55;;;12.60;99.90;;;;;;5027885;28;20088;-90
2022/01/02 11:21:13;;;;;;;11.32;5.15;;;12.60;99.90;;;;;;4977420;28;20034;-90
2022/01/02 11:24:18;;;;;;;12.05;5.07;;;12.60;99.90;;;;;;5010523;28;20120;-90
2022/01/02 11:26:54;;;;;;;10.50;4.95;;;12.60;99.90;;;;;;5001552;28;20054;-90
2022/01/02 11:29:31;;;;;;;13.13;4.97;;;12.50;99.90;;;;;;4998060;28;20030;-90
2022/01/02 11:31:57;;;;;;;13.07;5.25;;;12.60;99.90;;;;;;4996103;28;20666;-90
2022/01/02 11:34:28;;;;;;;13.98;4.78;;;12.50;99.90;;;;;;4985538;28;20038;-90
2022/01/02 11:37:18;;;;;;;13.82;4.70;;;12.50;99.90;;;;;;5001530;28;20052;-90
2022/01/02 11:39:52;;;;;;;11.05;4.47;;;12.60;99.90;;;;;;5028664;28;20068;-90
2022/01/02 11:42:38;;;;;;;14.25;4.57;;;12.60;99.90;;;;;;4995961;28;20145;-90
2022/01/02 11:45:24;;;;;;;12.23;4.82;;;12.60;99.90;;;;;;5004208;28;20056;-90
2022/01/02 11:47:49;;;;;;;10.98;4.45;;;12.60;99.90;;;;;;5014107;28;20507;-90
2022/01/02 11:50:30;;;;;;;12.30;4.55;;;12.60;99.90;;;;;;4984653;28;20085;-90
2022/01/02 11:53:17;;;;;;;11.43;4.60;;;12.60;99.90;;;;;;4995556;28;20042;-90
2022/01/02 11:55:49;;;;;;;11.82;4.25;;;12.60;99.90;;;;;;4987340;28;20585;-89
2022/01/02 11:58:37;;;;;;;12.38;4.40;;;12.60;99.90;;;;;;4986682;28;20038;-90
2022/01/02 12:01:03;;;;;;;12.80;4.60;;;12.60;99.90;;;;;;5010853;28;20085;-90
2022/01/02 12:03:38;;;;;;;12.93;4.70;;;12.60;99.90;;;;;;5005312;28;20701;-90
2022/01/02 12:06:14;;;;;;;10.75;4.70;;;12.60;99.90;;;;;;4988078;28;20041;-89
2022/01/02 12:08:40;;;;;;;11.18;4.18;;;12.60;99.90;;;;;;4984796;28;20133;-89
2022/01/02 12:11:30;;;;;;;12.88;5.40;;;12.60;99.90;;;;;;4986620;28;20124;-89
2022/01/02 12:14:06;;;;;;;12.82;4.60;;;12.60;99.90;;;;;;4992869;28;20038;-89
2022/01/02 12:16:48;;;;;;;13.45;4.70;;;12.60;99.90;;;;;;5008688;28;20038;-89
2022/01/02 12:19:14;;;;;;;10.80;4.55;;;12.50;99.90;;;;;;5000794;28;20097;-90
2022/01/02 12:22:09;;;;;;;11.55;4.15;;;12.50;99.90;;;;;;5002647;28;20045;-90
2022/01/02 12:24:35;;;;;;;10.48;4.50;;;12.50;99.90;;;;;;4983875;28;20056;-90
2022/01/02 12:27:12;;;;;;;10.93;4.00;;;12.50;99.90;;;;;;5007006;28;20064;-90
2022/01/02 12:29:38;;;;;;;11.23;4.00;;;12.60;99.90;;;;;;4987698;28;20033;-90
2022/01/02 12:32:06;;;;;;;13.75;4.38;;;12.60;99.90;;;;;;4985446;28;20042;-90
2022/01/02 12:34:32;;;;;;;13.60;4.45;;;12.70;99.90;;;;;;5010773;28;20042;-90
2022/01/02 12:36:58;;;;;;;12.02;3.90;;;12.70;99.90;;;;;;4995793;28;20416;-90
2022/01/02 12:39:33;;;;;;;12.13;4.05;;;12.70;99.90;;;;;;4995993;28;20480;-90
2022/01/02 12:42:05;;;;;;;10.95;4.10;;;12.70;99.90;;;;;;4982945;28;20034;-90
2022/01/02 12:44:34;;;;;;;13.18;4.32;;;12.70;99.90;;;;;;5008118;28;20042;-90
2022/01/02 12:47:05;;;;;;;13.20;3.90;;;12.70;99.90;;;;;;4984200;28;20041;-90
2022/01/02 12:49:39;;;;;;;9.95;3.63;;;12.70;99.90;;;;;;4976255;28;20041;-91
2022/01/02 12:52:13;;;;;;;11.00;3.53;;;12.70;99.90;;;;;;4988190;28;20376;-90